sensor_id;sensor_type;location;lat;lon;timestamp;pressure;altitude;pressure_sealevel;temperature;humidity
9746;BME280;4912;50.836;12.958;2023-05-11T00:00:18;97525.34;;;16.10;100.00
9746;BME280;4912;50.836;12.958;2023-05-11T00:02:51;97521.78;;;16.10;100.00
9746;BME280;4912;50.836;12.958;2023-05-11T00:05:23;97518.78;;;16.08;100.00
9746;BME280;4912;50.836;12.958;2023-05-11T00:07:54;97528.66;;;16.09;100.00
9746;BME280;4912;50.836;12.958;2023-05-11T00:10:27;97528.16;;;16.05;100.00
9746;BME280;4912;50.836;12.958;2023-05-11T00:12:57;97525.09;;;16.03;100.00
9746;BME280;4912;50.836;12.958;2023-05-11T00:15:28;97526.13;;;16.05;100.00
9746;BME280;4912;50.836;12.958;2023-05-11T00:17:58;97531.44;;;16.03;100.00
9746;BME280;4912;50.836;12.958;2023-05-11T00:20:31;97528.94;;;15.94;100.00
9746;BME280;4912;50.836;12.958;2023-05-11T00:23:01;97523.13;;;15.92;100.00
9746;BME280;4912;50.836;12.958;2023-05-11T00:25:32;97522.13;;;15.89;100.00
9746;BME280;4912;50.836;12.958;2023-05-11T00:28:02;97523.88;;;15.87;100.00
9746;BME280;4912;50.836;12.958;2023-05-11T00:30:32;97514.53;;;15.84;100.00
9746;BME280;4912;50.836;12.958;2023-05-11T00:33:02;97513.50;;;15.87;100.00
9746;BME280;4912;50.836;12.958;2023-05-11T00:35:35;97504.34;;;15.92;100.00
9746;BME280;4912;50.836;12.958;2023-05-11T00:38:05;97500.78;;;15.97;100.00
9746;BME280;4912;50.836;12.958;2023-05-11T00:40:36;97496.97;;;16.01;100.00
9746;BME280;4912;50.836;12.958;2023-05-11T00:43:07;97501.03;;;16.00;100.00
9746;BME280;4912;50.836;12.958;2023-05-11T00:45:37;97500.00;;;15.97;100.00
9746;BME280;4912;50.836;12.958;2023-05-11T00:48:07;97493.19;;;15.92;100.00
9746;BME280;4912;50.836;12.958;2023-05-11T00:50:40;97489.66;;;15.86;100.00
9746;BME280;4912;50.836;12.958;2023-05-11T00:53:11;97496.75;;;15.87;100.00
9746;BME280;4912;50.836;12.958;2023-05-11T00:55:41;97486.34;;;15.88;100.00
9746;BME280;4912;50.836;12.958;2023-05-11T00:58:12;97489.41;;;15.90;100.00
9746;BME280;4912;50.836;12.958;2023-05-11T01:00:43;97488.63;;;15.89;100.00
9746;BME280;4912;50.836;12.958;2023-05-11T01:03:15;97487.88;;;15.89;100.00
9746;BME280;4912;50.836;12.958;2023-05-11T01:05:48;97491.16;;;15.87;100.00
9746;BME280;4912;50.836;12.958;2023-05-11T01:08:23;97484.06;;;15.86;100.00
9746;BME280;4912;50.836;12.958;2023-05-11T01:10:57;97492.44;;;15.86;100.00
9746;BME280;4912;50.836;12.958;2023-05-11T01:13:32;97483.84;;;15.84;100.00
9746;BME280;4912;50.836;12.958;2023-05-11T01:16:08;97490.41;;;15.87;100.00
9746;BME280;4912;50.836;12.958;2023-05-11T01:18:42;97490.41;;;15.87;100.00
9746;BME280;4912;50.836;12.958;2023-05-11T01:21:21;97489.91;;;15.88;100.00
9746;BME280;4912;50.836;12.958;2023-05-11T01:26:58;97478.75;;;15.83;100.00
9746;BME280;4912;50.836;12.958;2023-05-11T01:29:40;97488.13;;;15.85;100.00
9746;BME280;4912;50.836;12.958;2023-05-11T01:32:17;97482.31;;;15.83;100.00
9746;BME280;4912;50.836;12.958;2023-05-11T01:34:50;97485.09;;;15.89;100.00
9746;BME280;4912;50.836;12.958;2023-05-11T01:37:23;97482.06;;;15.81;100.00
9746;BME280;4912;50.836;12.958;2023-05-11T01:40:00;97482.31;;;15.83;100.00
9746;BME280;4912;50.836;12.958;2023-05-11T01:42:34;97484.34;;;15.77;100.00
9746;BME280;4912;50.836;12.958;2023-05-11T01:45:07;97484.59;;;15.74;100.00
9746;BME280;4912;50.836;12.958;2023-05-11T01:47:42;97484.09;;;15.75;100.00
9746;BME280;4912;50.836;12.958;2023-05-11T01:50:14;97488.16;;;15.74;100.00
9746;BME280;4912;50.836;12.958;2023-05-11T01:52:47;97487.16;;;15.77;100.00
9746;BME280;4912;50.836;12.958;2023-05-11T01:55:18;97500.84;;;15.75;100.00
9746;BME280;4912;50.836;12.958;2023-05-11T01:57:52;97489.16;;;15.77;100.00
9746;BME280;4912;50.836;12.958;2023-05-11T02:00:22;97492.44;;;15.81;100.00
9746;BME280;4912;50.836;12.958;2023-05-11T02:02:55;97498.53;;;15.79;100.00
9746;BME280;4912;50.836;12.958;2023-05-11T02:05:27;97498.81;;;15.76;100.00
9746;BME280;4912;50.836;12.958;2023-05-11T02:08:01;97490.44;;;15.76;100.00
9746;BME280;4912;50.836;12.958;2023-05-11T02:10:33;97493.72;;;15.74;100.00
9746;BME280;4912;50.836;12.958;2023-05-11T02:13:04;97496.03;;;15.76;100.00
9746;BME280;4912;50.836;12.958;2023-05-11T02:15:36;97490.69;;;15.78;100.00
9746;BME280;4912;50.836;12.958;2023-05-11T02:18:12;97495.50;;;15.77;100.00
9746;BME280;4912;50.836;12.958;2023-05-11T02:20:43;97494.47;;;15.80;100.00
9746;BME280;4912;50.836;12.958;2023-05-11T02:23:14;97491.19;;;15.82;100.00
9746;BME280;4912;50.836;12.958;2023-05-11T02:25:46;97489.91;;;15.83;100.00
9746;BME280;4912;50.836;12.958;2023-05-11T02:28:18;97494.75;;;15.82;100.00
9746;BME280;4912;50.836;12.958;2023-05-11T02:30:49;97484.59;;;15.79;100.00
9746;BME280;4912;50.836;12.958;2023-05-11T02:33:26;97487.16;;;15.77;100.00
9746;BME280;4912;50.836;12.958;2023-05-11T02:36:01;97492.47;;;15.75;100.00
9746;BME280;4912;50.836;12.958;2023-05-11T02:38:34;97494.25;;;15.78;100.00
9746;BME280;4912;50.836;12.958;2023-05-11T02:41:08;97488.41;;;15.76;100.00
9746;BME280;4912;50.836;12.958;2023-05-11T02:43:43;97486.38;;;15.77;100.00
9746;BME280;4912;50.836;12.958;2023-05-11T02:46:17;97480.03;;;15.76;100.00
9746;BME280;4912;50.836;12.958;2023-05-11T02:48:54;97481.56;;;15.77;100.00
9746;BME280;4912;50.836;12.958;2023-05-11T02:51:29;97480.31;;;15.78;100.00
9746;BME280;4912;50.836;12.958;2023-05-11T02:54:02;97481.56;;;15.77;100.00
9746;BME280;4912;50.836;12.958;2023-05-11T02:56:40;97478.78;;;15.77;100.00
9746;BME280;4912;50.836;12.958;2023-05-11T02:59:10;97476.50;;;15.76;100.00
9746;BME280;4912;50.836;12.958;2023-05-11T03:01:41;97473.69;;;15.76;100.00
9746;BME280;4912;50.836;12.958;2023-05-11T03:04:14;97476.50;;;15.76;100.00
9746;BME280;4912;50.836;12.958;2023-05-11T03:06:45;97478.50;;;15.75;100.00
9746;BME280;4912;50.836;12.958;2023-05-11T03:09:15;97491.69;;;15.75;100.00
9746;BME280;4912;50.836;12.958;2023-05-11T03:11:47;97486.63;;;15.73;100.00
9746;BME280;4912;50.836;12.958;2023-05-11T03:14:17;97488.44;;;15.71;100.00
9746;BME280;4912;50.836;12.958;2023-05-11T03:16:50;97491.72;;;15.69;100.00
9746;BME280;4912;50.836;12.958;2023-05-11T03:19:24;97492.47;;;15.70;100.00
9746;BME280;4912;50.836;12.958;2023-05-11T03:21:56;97489.69;;;15.75;100.00
9746;BME280;4912;50.836;12.958;2023-05-11T03:24:26;97488.41;;;15.76;100.00
9746;BME280;4912;50.836;12.958;2023-05-11T03:26:57;97486.88;;;15.75;100.00
9746;BME280;4912;50.836;12.958;2023-05-11T03:29:29;97483.34;;;15.75;100.00
9746;BME280;4912;50.836;12.958;2023-05-11T03:32:04;97490.19;;;15.74;100.00
9746;BME280;4912;50.836;12.958;2023-05-11T03:34:39;97484.59;;;15.74;100.00
9746;BME280;4912;50.836;12.958;2023-05-11T03:37:12;97489.69;;;15.75;100.00
9746;BME280;4912;50.836;12.958;2023-05-11T03:39:44;97491.69;;;15.80;100.00
9746;BME280;4912;50.836;12.958;2023-05-11T03:42:16;97488.41;;;15.82;100.00
9746;BME280;4912;50.836;12.958;2023-05-11T03:44:48;97494.00;;;15.76;100.00
9746;BME280;4912;50.836;12.958;2023-05-11T03:47:21;97483.84;;;15.73;100.00
9746;BME280;4912;50.836;12.958;2023-05-11T03:49:55;97485.88;;;15.67;100.00
9746;BME280;4912;50.836;12.958;2023-05-11T03:52:26;97485.66;;;15.65;100.00
9746;BME280;4912;50.836;12.958;2023-05-11T03:54:56;97483.59;;;15.71;100.00
9746;BME280;4912;50.836;12.958;2023-05-11T03:57:27;97489.19;;;15.71;100.00
9746;BME280;4912;50.836;12.958;2023-05-11T03:59:57;97485.38;;;15.69;98.93
9746;BME280;4912;50.836;12.958;2023-05-11T04:02:29;97485.66;;;15.65;98.27
9746;BME280;4912;50.836;12.958;2023-05-11T04:05:02;97479.03;;;15.68;96.97
9746;BME280;4912;50.836;12.958;2023-05-11T04:07:35;97488.66;;;15.73;96.72
9746;BME280;4912;50.836;12.958;2023-05-11T04:10:07;97484.63;;;15.68;95.13
9746;BME280;4912;50.836;12.958;2023-05-11T04:12:37;97488.19;;;15.63;92.32
9746;BME280;4912;50.836;12.958;2023-05-11T04:15:08;97492.22;;;15.62;91.92
9746;BME280;4912;50.836;12.958;2023-05-11T04:17:39;97485.66;;;15.65;91.21
9746;BME280;4912;50.836;12.958;2023-05-11T04:20:12;97486.91;;;15.70;91.89
9746;BME280;4912;50.836;12.958;2023-05-11T04:22:43;97491.72;;;15.69;91.21
9746;BME280;4912;50.836;12.958;2023-05-11T04:25:13;97494.50;;;15.69;91.35
9746;BME280;4912;50.836;12.958;2023-05-11T04:27:44;97490.72;;;15.72;91.66
9746;BME280;4912;50.836;12.958;2023-05-11T04:30:14;97492.94;;;15.79;92.54
9746;BME280;4912;50.836;12.958;2023-05-11T04:32:46;97501.31;;;15.79;93.02
9746;BME280;4912;50.836;12.958;2023-05-11T04:35:19;97501.56;;;15.87;91.39
9746;BME280;4912;50.836;12.958;2023-05-11T04:37:51;97505.59;;;15.91;89.64
9746;BME280;4912;50.836;12.958;2023-05-11T04:40:21;97496.47;;;15.91;89.62
9746;BME280;4912;50.836;12.958;2023-05-11T04:42:53;97496.72;;;15.98;88.52
9746;BME280;4912;50.836;12.958;2023-05-11T04:45:23;97492.91;;;16.02;88.43
9746;BME280;4912;50.836;12.958;2023-05-11T04:47:53;97499.75;;;16.01;87.65
9746;BME280;4912;50.836;12.958;2023-05-11T04:50:27;97505.06;;;16.04;88.78
9746;BME280;4912;50.836;12.958;2023-05-11T04:52:57;97495.94;;;16.04;89.05
9746;BME280;4912;50.836;12.958;2023-05-11T04:55:28;97498.72;;;16.09;88.84
9746;BME280;4912;50.836;12.958;2023-05-11T04:57:59;97508.34;;;16.14;88.04
9746;BME280;4912;50.836;12.958;2023-05-11T05:00:29;97504.78;;;16.19;87.63
9746;BME280;4912;50.836;12.958;2023-05-11T05:02:59;97498.94;;;16.17;87.00
9746;BME280;4912;50.836;12.958;2023-05-11T05:05:34;97493.84;;;16.21;87.19
9746;BME280;4912;50.836;12.958;2023-05-11T05:08:04;97503.50;;;16.25;85.12
9746;BME280;4912;50.836;12.958;2023-05-11T05:10:34;97509.28;;;16.33;84.39
9746;BME280;4912;50.836;12.958;2023-05-11T05:13:04;97500.13;;;16.38;85.03
9746;BME280;4912;50.836;12.958;2023-05-11T05:15:35;97501.34;;;16.48;82.91
9746;BME280;4912;50.836;12.958;2023-05-11T05:18:05;97513.00;;;16.52;80.68
9746;BME280;4912;50.836;12.958;2023-05-11T05:20:38;97496.28;;;16.47;78.64
9746;BME280;4912;50.836;12.958;2023-05-11T05:23:08;97508.97;;;16.48;77.58
9746;BME280;4912;50.836;12.958;2023-05-11T05:25:38;97507.16;;;16.50;77.55
9746;BME280;4912;50.836;12.958;2023-05-11T05:28:08;97506.16;;;16.53;77.29
9746;BME280;4912;50.836;12.958;2023-05-11T05:30:39;97509.69;;;16.59;77.27
9746;BME280;4912;50.836;12.958;2023-05-11T05:33:09;97515.50;;;16.61;77.19
9746;BME280;4912;50.836;12.958;2023-05-11T05:35:42;97515.25;;;16.65;76.70
9746;BME280;4912;50.836;12.958;2023-05-11T05:38:14;97517.78;;;16.68;75.96
9746;BME280;4912;50.836;12.958;2023-05-11T05:40:46;97518.50;;;16.74;75.59
9746;BME280;4912;50.836;12.958;2023-05-11T05:43:16;97513.94;;;16.77;74.01
9746;BME280;4912;50.836;12.958;2023-05-11T05:45:47;97515.63;;;16.86;72.86
9746;BME280;4912;50.836;12.958;2023-05-11T05:48:17;97526.31;;;16.87;71.69
9746;BME280;4912;50.836;12.958;2023-05-11T05:50:50;97526.75;;;16.97;71.99
9746;BME280;4912;50.836;12.958;2023-05-11T05:53:20;97519.63;;;17.01;71.31
9746;BME280;4912;50.836;12.958;2023-05-11T05:55:51;97522.59;;;17.09;72.36
9746;BME280;4912;50.836;12.958;2023-05-11T05:58:21;97519.03;;;17.14;71.13
9746;BME280;4912;50.836;12.958;2023-05-11T06:00:51;97520.53;;;17.15;70.16
9746;BME280;4912;50.836;12.958;2023-05-11T06:03:22;97521.81;;;17.14;70.45
9746;BME280;4912;50.836;12.958;2023-05-11T06:05:58;97528.44;;;17.11;69.96
9746;BME280;4912;50.836;12.958;2023-05-11T06:08:29;97525.09;;;17.18;70.57
9746;BME280;4912;50.836;12.958;2023-05-11T06:10:59;97528.81;;;17.32;70.20
9746;BME280;4912;50.836;12.958;2023-05-11T06:13:29;97529.28;;;17.36;70.07
9746;BME280;4912;50.836;12.958;2023-05-11T06:15:59;97530.50;;;17.40;69.92
9746;BME280;4912;50.836;12.958;2023-05-11T06:18:32;97535.53;;;17.47;70.40
9746;BME280;4912;50.836;12.958;2023-05-11T06:21:08;97535.53;;;17.47;70.50
9746;BME280;4912;50.836;12.958;2023-05-11T06:23:38;97531.72;;;17.45;69.91
9746;BME280;4912;50.836;12.958;2023-05-11T06:26:08;97534.06;;;17.41;69.57
9746;BME280;4912;50.836;12.958;2023-05-11T06:28:38;97543.22;;;17.41;68.83
9746;BME280;4912;50.836;12.958;2023-05-11T06:31:12;97541.94;;;17.42;69.45
9746;BME280;4912;50.836;12.958;2023-05-11T06:33:43;97540.38;;;17.47;69.93
9746;BME280;4912;50.836;12.958;2023-05-11T06:36:25;97539.41;;;17.39;69.83
9746;BME280;4912;50.836;12.958;2023-05-11T06:38:56;97537.06;;;17.48;70.11
9746;BME280;4912;50.836;12.958;2023-05-11T06:41:26;97533.78;;;17.44;69.61
9746;BME280;4912;50.836;12.958;2023-05-11T06:43:56;97541.59;;;17.51;69.31
9746;BME280;4912;50.836;12.958;2023-05-11T06:46:34;97542.53;;;17.65;69.69
9746;BME280;4912;50.836;12.958;2023-05-11T06:49:06;97543.13;;;17.52;69.42
9746;BME280;4912;50.836;12.958;2023-05-11T06:51:39;97539.75;;;17.59;69.13
9746;BME280;4912;50.836;12.958;2023-05-11T06:54:09;97534.34;;;17.73;69.02
9746;BME280;4912;50.836;12.958;2023-05-11T06:56:39;97539.44;;;17.69;68.92
9746;BME280;4912;50.836;12.958;2023-05-11T06:59:09;97538.22;;;17.64;69.77
9746;BME280;4912;50.836;12.958;2023-05-11T07:01:39;97541.31;;;17.85;68.75
9746;BME280;4912;50.836;12.958;2023-05-11T07:04:10;97533.06;;;17.98;67.02
9746;BME280;4912;50.836;12.958;2023-05-11T07:06:43;97530.38;;;18.11;67.01
9746;BME280;4912;50.836;12.958;2023-05-11T07:09:13;97540.94;;;18.24;65.71
9746;BME280;4912;50.836;12.958;2023-05-11T07:11:43;97536.31;;;18.26;66.26
9746;BME280;4912;50.836;12.958;2023-05-11T07:14:14;97532.28;;;18.22;65.64
9746;BME280;4912;50.836;12.958;2023-05-11T07:16:44;97534.22;;;18.51;64.91
9746;BME280;4912;50.836;12.958;2023-05-11T07:19:18;97537.59;;;18.87;63.69
9746;BME280;4912;50.836;12.958;2023-05-11T07:21:51;97534.94;;;19.13;63.78
9746;BME280;4912;50.836;12.958;2023-05-11T07:24:21;97535.22;;;19.29;62.51
9746;BME280;4912;50.836;12.958;2023-05-11T07:26:51;97531.59;;;19.66;62.13
9746;BME280;4912;50.836;12.958;2023-05-11T07:29:23;97536.19;;;19.50;60.31
9746;BME280;4912;50.836;12.958;2023-05-11T07:31:53;97539.91;;;19.71;60.09
9746;BME280;4912;50.836;12.958;2023-05-11T07:34:23;97541.38;;;20.04;59.25
9746;BME280;4912;50.836;12.958;2023-05-11T07:36:56;97548.75;;;20.33;59.12
9746;BME280;4912;50.836;12.958;2023-05-11T07:39:27;97551.22;;;20.63;59.07
9746;BME280;4912;50.836;12.958;2023-05-11T07:41:57;97550.56;;;20.57;57.12
9746;BME280;4912;50.836;12.958;2023-05-11T07:44:27;97553.94;;;20.42;56.42
9746;BME280;4912;50.836;12.958;2023-05-11T07:46:57;97559.22;;;20.46;57.05
9746;BME280;4912;50.836;12.958;2023-05-11T07:49:28;97557.63;;;20.37;55.81
9746;BME280;4912;50.836;12.958;2023-05-11T07:52:11;97549.28;;;20.45;55.77
9746;BME280;4912;50.836;12.958;2023-05-11T07:54:41;97548.50;;;20.71;55.46
9746;BME280;4912;50.836;12.958;2023-05-11T07:57:12;97543.28;;;21.35;54.58
9746;BME280;4912;50.836;12.958;2023-05-11T07:59:42;97542.88;;;21.73;53.08
9746;BME280;4912;50.836;12.958;2023-05-11T08:02:12;97545.34;;;21.97;51.40
9746;BME280;4912;50.836;12.958;2023-05-11T08:04:45;97539.50;;;22.23;51.28
9746;BME280;4912;50.836;12.958;2023-05-11T08:07:18;97542.22;;;22.36;50.22
9746;BME280;4912;50.836;12.958;2023-05-11T08:09:48;97545.84;;;22.16;49.55
9746;BME280;4912;50.836;12.958;2023-05-11T08:12:18;97535.69;;;22.13;50.92
9746;BME280;4912;50.836;12.958;2023-05-11T08:14:48;97546.84;;;21.77;50.94
9746;BME280;4912;50.836;12.958;2023-05-11T08:17:18;97542.09;;;21.31;51.89
9746;BME280;4912;50.836;12.958;2023-05-11T08:19:48;97555.69;;;21.19;53.08
9746;BME280;4912;50.836;12.958;2023-05-11T08:22:21;97552.88;;;21.81;52.05
9746;BME280;4912;50.836;12.958;2023-05-11T08:24:52;97552.81;;;21.74;51.19
9746;BME280;4912;50.836;12.958;2023-05-11T08:27:22;97546.16;;;22.05;50.71
9746;BME280;4912;50.836;12.958;2023-05-11T08:29:53;97556.13;;;22.06;50.48
9746;BME280;4912;50.836;12.958;2023-05-11T08:32:23;97544.19;;;22.49;49.92
9746;BME280;4912;50.836;12.958;2023-05-11T08:34:55;97546.72;;;23.11;48.12
9746;BME280;4912;50.836;12.958;2023-05-11T08:37:31;97543.19;;;22.75;49.33
9746;BME280;4912;50.836;12.958;2023-05-11T08:40:01;97536.81;;;22.46;49.86
9746;BME280;4912;50.836;12.958;2023-05-11T08:42:32;97550.34;;;22.12;50.12
9746;BME280;4912;50.836;12.958;2023-05-11T08:45:04;97539.59;;;22.10;49.92
9746;BME280;4912;50.836;12.958;2023-05-11T08:47:35;97547.66;;;22.70;49.83
9746;BME280;4912;50.836;12.958;2023-05-11T08:50:06;97541.53;;;23.31;48.75
9746;BME280;4912;50.836;12.958;2023-05-11T08:52:40;97538.56;;;24.04;46.05
9746;BME280;4912;50.836;12.958;2023-05-11T08:55:10;97542.59;;;24.79;42.72
9746;BME280;4912;50.836;12.958;2023-05-11T08:57:40;97540.03;;;25.14;40.94
9746;BME280;4912;50.836;12.958;2023-05-11T09:00:14;97533.72;;;24.83;40.81
9746;BME280;4912;50.836;12.958;2023-05-11T09:02:45;97537.09;;;23.88;42.08
9746;BME280;4912;50.836;12.958;2023-05-11T09:05:17;97533.69;;;23.67;45.02
9746;BME280;4912;50.836;12.958;2023-05-11T09:07:51;97540.72;;;23.22;45.52
9746;BME280;4912;50.836;12.958;2023-05-11T09:10:23;97549.97;;;22.72;44.11
9746;BME280;4912;50.836;12.958;2023-05-11T09:12:53;97538.50;;;22.41;45.43
9746;BME280;4912;50.836;12.958;2023-05-11T09:15:24;97540.72;;;22.35;46.83
9746;BME280;4912;50.836;12.958;2023-05-11T09:17:54;97529.97;;;22.26;47.12
9746;BME280;4912;50.836;12.958;2023-05-11T09:20:25;97535.94;;;22.23;46.52
9746;BME280;4912;50.836;12.958;2023-05-11T09:23:00;97535.91;;;21.94;46.44
9746;BME280;4912;50.836;12.958;2023-05-11T09:25:31;97545.53;;;22.27;46.91
9746;BME280;4912;50.836;12.958;2023-05-11T09:28:01;97530.00;;;22.34;46.16
9746;BME280;4912;50.836;12.958;2023-05-11T09:30:32;97538.75;;;22.23;46.08
9746;BME280;4912;50.836;12.958;2023-05-11T09:33:02;97549.19;;;22.71;45.16
9746;BME280;4912;50.836;12.958;2023-05-11T09:35:34;97545.94;;;22.96;43.40
9746;BME280;4912;50.836;12.958;2023-05-11T09:38:08;97541.38;;;22.85;43.07
9746;BME280;4912;50.836;12.958;2023-05-11T09:40:48;97546.47;;;22.22;43.50
9746;BME280;4912;50.836;12.958;2023-05-11T09:43:23;97547.88;;;23.08;42.02
9746;BME280;4912;50.836;12.958;2023-05-11T09:45:55;97540.78;;;23.45;40.95
9746;BME280;4912;50.836;12.958;2023-05-11T09:48:30;97538.97;;;24.08;41.30
9746;BME280;4912;50.836;12.958;2023-05-11T09:51:02;97538.56;;;24.04;41.35
9746;BME280;4912;50.836;12.958;2023-05-11T09:53:36;97531.03;;;23.99;40.79
9746;BME280;4912;50.836;12.958;2023-05-11T09:56:09;97534.25;;;23.73;41.26
9746;BME280;4912;50.836;12.958;2023-05-11T09:58:48;97537.50;;;24.78;38.53
9746;BME280;4912;50.836;12.958;2023-05-11T10:01:27;97544.50;;;24.69;37.14
9746;BME280;4912;50.836;12.958;2023-05-11T10:03:59;97538.19;;;23.93;39.09
9746;BME280;4912;50.836;12.958;2023-05-11T10:06:48;97548.75;;;25.33;39.11
9746;BME280;4912;50.836;12.958;2023-05-11T10:09:23;97543.78;;;24.61;38.30
9746;BME280;4912;50.836;12.958;2023-05-11T10:11:54;97532.97;;;25.55;37.17
9746;BME280;4912;50.836;12.958;2023-05-11T10:14:26;97539.38;;;26.05;36.07
9746;BME280;4912;50.836;12.958;2023-05-11T10:16:57;97536.66;;;25.08;38.70
9746;BME280;4912;50.836;12.958;2023-05-11T10:19:30;97531.31;;;24.72;37.72
9746;BME280;4912;50.836;12.958;2023-05-11T10:22:00;97547.19;;;25.47;35.94
9746;BME280;4912;50.836;12.958;2023-05-11T10:24:34;97534.91;;;25.45;34.98
9746;BME280;4912;50.836;12.958;2023-05-11T10:27:05;97536.28;;;26.35;35.01
9746;BME280;4912;50.836;12.958;2023-05-11T10:29:36;97523.63;;;25.69;35.42
9746;BME280;4912;50.836;12.958;2023-05-11T10:32:06;97532.63;;;26.60;33.24
9746;BME280;4912;50.836;12.958;2023-05-11T10:34:37;97524.41;;;27.42;33.24
9746;BME280;4912;50.836;12.958;2023-05-11T10:37:08;97522.97;;;27.87;31.77
9746;BME280;4912;50.836;12.958;2023-05-11T10:39:41;97520.69;;;27.22;30.69
9746;BME280;4912;50.836;12.958;2023-05-11T10:42:21;97521.38;;;27.40;31.71
9746;BME280;4912;50.836;12.958;2023-05-11T10:44:59;97512.94;;;28.32;31.34
9746;BME280;4912;50.836;12.958;2023-05-11T10:50:44;97511.09;;;26.74;31.89
9746;BME280;4912;50.836;12.958;2023-05-11T10:53:24;97515.91;;;25.87;34.03
9746;BME280;4912;50.836;12.958;2023-05-11T10:56:10;97520.53;;;26.00;34.62
9746;BME280;4912;50.836;12.958;2023-05-11T10:58:53;97496.22;;;27.54;32.12
9746;BME280;4912;50.836;12.958;2023-05-11T11:01:38;97507.84;;;28.60;31.61
9746;BME280;4912;50.836;12.958;2023-05-11T11:04:09;97500.00;;;28.22;30.04
9746;BME280;4912;50.836;12.958;2023-05-11T11:06:41;97502.91;;;26.95;32.32
9746;BME280;4912;50.836;12.958;2023-05-11T11:09:12;97506.09;;;26.47;33.54
9746;BME280;4912;50.836;12.958;2023-05-11T11:11:46;97503.84;;;27.97;31.36
9746;BME280;4912;50.836;12.958;2023-05-11T11:14:17;97503.03;;;27.78;30.20
9746;BME280;4912;50.836;12.958;2023-05-11T11:19:47;97516.56;;;25.21;33.69
9746;BME280;4912;50.836;12.958;2023-05-11T11:25:13;97509.72;;;24.44;35.34
9746;BME280;4912;50.836;12.958;2023-05-11T11:27:55;97510.25;;;24.50;36.91
9746;BME280;4912;50.836;12.958;2023-05-11T11:30:26;97507.66;;;24.22;35.70
9746;BME280;4912;50.836;12.958;2023-05-11T11:36:09;97520.88;;;23.66;36.31
9746;BME280;4912;50.836;12.958;2023-05-11T11:38:55;97518.31;;;23.02;36.47
9746;BME280;4912;50.836;12.958;2023-05-11T11:41:27;97512.59;;;22.79;37.38
9746;BME280;4912;50.836;12.958;2023-05-11T11:44:01;97511.09;;;23.97;36.20
9746;BME280;4912;50.836;12.958;2023-05-11T11:46:32;97513.50;;;24.24;36.33
9746;BME280;4912;50.836;12.958;2023-05-11T11:49:05;97511.06;;;24.05;35.88
9746;BME280;4912;50.836;12.958;2023-05-11T11:51:36;97515.03;;;24.02;36.15
9746;BME280;4912;50.836;12.958;2023-05-11T11:54:07;97515.06;;;23.79;36.67
9746;BME280;4912;50.836;12.958;2023-05-11T11:56:38;97515.59;;;23.55;36.88
9746;BME280;4912;50.836;12.958;2023-05-11T11:59:13;97508.34;;;23.08;36.22
9746;BME280;4912;50.836;12.958;2023-05-11T12:01:45;97519.91;;;22.82;37.81
9746;BME280;4912;50.836;12.958;2023-05-11T12:07:21;97527.03;;;22.11;39.29
9746;BME280;4912;50.836;12.958;2023-05-11T12:09:53;97530.69;;;21.98;39.62
9746;BME280;4912;50.836;12.958;2023-05-11T12:12:24;97529.03;;;21.82;38.38
9746;BME280;4912;50.836;12.958;2023-05-11T12:14:58;97526.59;;;21.79;38.92
9746;BME280;4912;50.836;12.958;2023-05-11T12:17:29;97539.69;;;21.76;38.96
9746;BME280;4912;50.836;12.958;2023-05-11T12:20:10;97528.88;;;21.59;38.54
9746;BME280;4912;50.836;12.958;2023-05-11T12:22:41;97536.78;;;21.61;38.19
9746;BME280;4912;50.836;12.958;2023-05-11T12:25:12;97530.56;;;21.83;37.80
9746;BME280;4912;50.836;12.958;2023-05-11T12:27:47;97529.31;;;21.92;37.35
9746;BME280;4912;50.836;12.958;2023-05-11T12:30:24;97532.72;;;22.19;35.86
9746;BME280;4912;50.836;12.958;2023-05-11T12:32:55;97528.41;;;23.56;34.63
9746;BME280;4912;50.836;12.958;2023-05-11T12:35:27;97525.88;;;25.96;30.67
9746;BME280;4912;50.836;12.958;2023-05-11T12:38:00;97531.44;;;27.14;28.34
9746;BME280;4912;50.836;12.958;2023-05-11T12:40:31;97514.94;;;28.13;27.41
9746;BME280;4912;50.836;12.958;2023-05-11T12:43:02;97521.06;;;28.74;26.40
9746;BME280;4912;50.836;12.958;2023-05-11T12:45:35;97520.47;;;29.55;25.93
9746;BME280;4912;50.836;12.958;2023-05-11T12:48:05;97524.25;;;30.19;25.06
9746;BME280;4912;50.836;12.958;2023-05-11T12:50:38;97529.97;;;30.83;24.09
9746;BME280;4912;50.836;12.958;2023-05-11T12:53:12;97528.00;;;31.18;22.93
9746;BME280;4912;50.836;12.958;2023-05-11T12:55:43;97521.53;;;31.62;23.07
9746;BME280;4912;50.836;12.958;2023-05-11T12:58:15;97531.50;;;31.85;22.72
9746;BME280;4912;50.836;12.958;2023-05-11T13:00:52;97529.44;;;31.52;22.74
9746;BME280;4912;50.836;12.958;2023-05-11T13:03:23;97521.97;;;29.56;24.41
9746;BME280;4912;50.836;12.958;2023-05-11T13:06:03;97532.75;;;28.98;25.46
9746;BME280;4912;50.836;12.958;2023-05-11T13:08:38;97527.31;;;27.52;28.30
9746;BME280;4912;50.836;12.958;2023-05-11T13:11:15;97530.72;;;26.62;29.91
9746;BME280;4912;50.836;12.958;2023-05-11T13:13:47;97539.59;;;25.82;31.50
9746;BME280;4912;50.836;12.958;2023-05-11T13:16:27;97548.41;;;25.29;32.49
9746;BME280;4912;50.836;12.958;2023-05-11T13:19:01;97536.63;;;24.60;33.60
9746;BME280;4912;50.836;12.958;2023-05-11T13:21:34;97532.19;;;24.27;34.31
9746;BME280;4912;50.836;12.958;2023-05-11T13:24:04;97531.41;;;23.81;34.97
9746;BME280;4912;50.836;12.958;2023-05-11T13:26:35;97533.66;;;23.52;35.99
9746;BME280;4912;50.836;12.958;2023-05-11T13:29:05;97531.50;;;23.14;36.64
9746;BME280;4912;50.836;12.958;2023-05-11T13:31:46;97537.97;;;22.79;36.66
9746;BME280;4912;50.836;12.958;2023-05-11T13:34:17;97534.81;;;22.54;37.37
9746;BME280;4912;50.836;12.958;2023-05-11T13:36:48;97537.38;;;22.44;37.80
9746;BME280;4912;50.836;12.958;2023-05-11T13:39:19;97536.16;;;22.25;38.27
9746;BME280;4912;50.836;12.958;2023-05-11T13:41:49;97535.69;;;22.13;38.17
9746;BME280;4912;50.836;12.958;2023-05-11T13:44:21;97525.72;;;22.12;38.71
9746;BME280;4912;50.836;12.958;2023-05-11T13:46:54;97530.75;;;22.06;38.16
9746;BME280;4912;50.836;12.958;2023-05-11T13:49:24;97531.50;;;22.07;38.64
9746;BME280;4912;50.836;12.958;2023-05-11T13:51:55;97527.41;;;22.08;39.00